Central Oregon RPC :: PAISLEY, OR B

liberation: 2020-05-16  07:00     latitude: 42.711350     longitude: -120.560250 126 birds
# LOFT PRING MILES ARRIVAL SPEED ToWin
1 ROCKY TOP AU19-JEDD-0507 108.983 2020-05-16 08:50:06.117 1742.116 00:00:00
2 STEELE LOFT AU19-CORP-4004 116.355 2020-05-16 08:57:56.668 1736.281 00:00:24
3 STEELE LOFT AU19-CORP-4022 116.355 2020-05-16 08:57:57.072 1736.182 00:00:24
4 STEELE LOFT AU16-MTH-11012 116.355 2020-05-16 08:58:26.704 1728.943 00:00:54
5 RUETER FAMILY LOFT AU19-CORP-5419 143.014 2020-05-16 09:26:17.368 1720.595 00:01:48
6 STEELE LOFT AU15-CORP-3873 116.355 2020-05-16 08:59:21.588 1715.693 00:01:49
7 RUETER FAMILY LOFT AU18-CORP-2726 143.014 2020-05-16 09:26:42.978 1715.590 00:02:14
8 TOPIGEONUSA AU19-CORP-4912 116.048 2020-05-16 08:59:08.241 1714.364 00:01:54
9 RUETER FAMILY LOFT AU17-CORP-0449 143.014 2020-05-16 09:26:55.705 1713.113 00:02:27
10 RUETER FAMILY LOFT AU19-CORP-5477 143.014 2020-05-16 09:27:03.204 1711.657 00:02:34
11 ROCKY TOP AU19-JEDD-0508 108.983 2020-05-16 08:52:28.968 1705.242 00:02:23
12 RUETER FAMILY LOFT AU19-CORP-5331 143.014 2020-05-16 09:28:16.572 1697.541 00:03:48
13 TOPIGEONUSA AU19-CORP-4908 116.048 2020-05-16 09:01:21.645 1682.956 00:04:07
14 STEELE LOFT AU19-CORP-4039 116.355 2020-05-16 09:02:20.837 1673.799 00:04:48
15 STEELE LOFT AU17-PNW-5212 116.355 2020-05-16 09:02:23.538 1673.184 00:04:51
16 STEELE LOFT AU19-CORP-4009 116.355 2020-05-16 09:02:25.124 1672.822 00:04:52
17 RUETER FAMILY LOFT AU17-CORP-0589 143.014 2020-05-16 09:30:29.013 1672.641 00:06:00
18 RUETER FAMILY LOFT AU19-CORP-5286 143.014 2020-05-16 09:30:48.273 1669.081 00:06:19
19 RUETER FAMILY LOFT AU18-CORP-2651 143.014 2020-05-16 09:30:59.483 1667.015 00:06:31
20 RUETER FAMILY LOFT AU19-CORP-5432 143.014 2020-05-16 09:31:35.028 1660.501 00:07:06
21 ROCKY TOP AU14-CORP-1542 108.983 2020-05-16 08:55:32.758 1660.035 00:05:27
22 STEELE LOFT AU17-CAPT-0094 116.355 2020-05-16 09:05:05.382 1637.104 00:07:32
23 AMERICAN LOFT AU19-CORP-4713 113.112 2020-05-16 09:03:06.977 1616.979 00:08:51
24 AMERICAN LOFT AU19-CORP-4714 113.112 2020-05-16 09:03:09.035 1616.529 00:08:53
25 AMERICAN LOFT AU19-CORP-4647 113.112 2020-05-16 09:03:11.083 1616.081 00:08:55
26 AMERICAN LOFT AU18-CORP-2550 113.112 2020-05-16 09:03:13.395 1615.575 00:08:57
27 TOPIGEONUSA AU18-CORP-4253 116.048 2020-05-16 09:06:31.687 1614.225 00:09:17
28 TOPIGEONUSA AU19-CORP-4938 116.048 2020-05-16 09:06:35.300 1613.457 00:09:21
29 RUETER FAMILY LOFT AU19-CORP-5488 143.014 2020-05-16 09:36:32.628 1607.889 00:12:04
30 RUETER FAMILY LOFT AU19-CORP-5408 143.014 2020-05-16 09:36:42.847 1606.141 00:12:14
31 RUETER FAMILY LOFT AU18-CORP-2728 143.014 2020-05-16 09:37:02.921 1602.719 00:12:34
32 RUETER FAMILY LOFT AU18-CORP-2635 143.014 2020-05-16 09:37:04.907 1602.382 00:12:36
33 TOPIGEONUSA AU17-CAPT-0054 116.048 2020-05-16 09:07:32.905 1601.312 00:10:19
34 RUETER FAMILY LOFT AU17-CORP-0425 143.014 2020-05-16 09:37:29.077 1598.283 00:13:00
35 HENDRICKSON FAMILY LOFT AU19-CORP-4367 113.192 2020-05-16 09:04:40.202 1597.963 00:10:19
36 RUETER FAMILY LOFT AU19-CORP-5339 143.014 2020-05-16 09:37:57.387 1593.509 00:13:28
37 HENDRICKSON FAMILY LOFT AU19-CORP-4379 113.192 2020-05-16 09:05:38.459 1585.614 00:11:17
38 HENDRICKSON FAMILY LOFT AU19-ARPU-29017 113.192 2020-05-16 09:05:40.081 1585.273 00:11:19
39 HENDRICKSON FAMILY LOFT AU19-CORP-4353 113.192 2020-05-16 09:05:40.443 1585.197 00:11:19
40 RUETER FAMILY LOFT AU18-CORP-2777 143.014 2020-05-16 09:39:27.669 1578.472 00:14:59
41 RUETER FAMILY LOFT AU18-CORP-2774 143.014 2020-05-16 09:39:31.174 1577.894 00:15:02
42 RUETER FAMILY LOFT AU18-CORP-2684 143.014 2020-05-16 09:39:39.914 1576.455 00:15:11
43 ROCKY TOP AU18-CORP-3337 108.983 2020-05-16 09:02:22.436 1567.412 00:12:16
44 ROCKY TOP AU19-ARPU-29015 108.983 2020-05-16 09:02:24.056 1567.066 00:12:18
45 ROCKY TOP AU18-CORP-3350 108.983 2020-05-16 09:02:24.170 1567.042 00:12:18
46 ROCKY TOP AU19-ARPU-29027 108.983 2020-05-16 09:02:24.966 1566.872 00:12:19
47 ROCKY TOP AU18-CORP-3334 108.983 2020-05-16 09:02:25.208 1566.820 00:12:19
48 ROCKY TOP AU18-CORP-3311 108.983 2020-05-16 09:02:26.503 1566.544 00:12:20
49 ROCKY TOP AU18-CORP-3385 108.983 2020-05-16 09:02:29.069 1565.997 00:12:23
50 ROCKY TOP AU19-CORP-4431 108.983 2020-05-16 09:02:31.763 1565.423 00:12:26
51 RUETER FAMILY LOFT AU19-CORP-5342 143.014 2020-05-16 09:40:56.212 1563.998 00:16:27
52 ROCKY TOP AU18-CORP-3300 108.983 2020-05-16 09:02:38.769 1563.933 00:12:33
53 RUETER FAMILY LOFT AU19-CORP-5377 143.014 2020-05-16 09:41:02.147 1563.038 00:16:33
54 ROCKY TOP AU19-ARPU-29022 108.983 2020-05-16 09:02:51.973 1561.132 00:12:46
55 ROCKY TOP AU18-CORP-3371 108.983 2020-05-16 09:02:54.864 1560.520 00:12:49
56 ROCKY TOP AU19-CORP-4482 108.983 2020-05-16 09:02:56.566 1560.160 00:12:50
57 ROCKY TOP AU18-CORP-3362 108.983 2020-05-16 09:02:59.518 1559.536 00:12:53
58 ROCKY TOP AU19-CORP-4421 108.983 2020-05-16 09:02:59.911 1559.452 00:12:54
59 RUETER FAMILY LOFT AU19-CORP-5344 143.014 2020-05-16 09:41:49.829 1555.362 00:17:21
60 RUETER FAMILY LOFT AU19-CORP-5393 143.014 2020-05-16 09:41:54.058 1554.685 00:17:25
61 RUETER FAMILY LOFT AU19-CORP-5405 143.014 2020-05-16 09:42:13.386 1551.598 00:17:44
62 RUETER FAMILY LOFT AU18-CORP-2625 143.014 2020-05-16 09:42:14.411 1551.434 00:17:45
63 RUETER FAMILY LOFT AU19-CORP-5435 143.014 2020-05-16 09:42:16.831 1551.049 00:17:48
64 RUETER FAMILY LOFT AU19-CORP-5293 143.014 2020-05-16 09:42:38.911 1547.539 00:18:10
65 AMERICAN LOFT AU17-CORP-0062 113.112 2020-05-16 09:08:48.944 1545.436 00:14:33
66 RUETER FAMILY LOFT AU19-CORP-5290 143.014 2020-05-16 09:43:08.743 1542.823 00:18:40
67 RUETER FAMILY LOFT AU19-CORP-5453 143.014 2020-05-16 09:44:14.972 1532.455 00:19:46
68 RUETER FAMILY LOFT AU19-CORP-5463 143.014 2020-05-16 09:44:21.057 1531.509 00:19:52
69 RUETER FAMILY LOFT AU18-CORP-2678 143.014 2020-05-16 09:45:30.137 1520.855 00:21:01
70 HENDRICKSON FAMILY LOFT AU19-CORP-4369 113.192 2020-05-16 09:11:44.174 1512.250 00:17:23
71 HENDRICKSON FAMILY LOFT AU18-CORP-4010 113.192 2020-05-16 09:11:48.431 1511.436 00:17:27
72 ROCKY TOP AU18-CORP-3386 108.983 2020-05-16 09:07:02.719 1509.779 00:16:57
73 ROCKY TOP AU19-CORP-4420 108.983 2020-05-16 09:08:29.428 1492.798 00:18:23
74 ROCKY TOP AU19-CORP-4454 108.983 2020-05-16 09:08:36.399 1491.450 00:18:30
75 AMERICAN LOFT AU19-CORP-4635 113.112 2020-05-16 09:14:12.920 1483.262 00:19:57
76 HENDRICKSON FAMILY LOFT AU19-ARPU-29011 113.192 2020-05-16 09:15:07.641 1474.299 00:20:46
77 ROCKY TOP AU19-CORP-4473 108.983 2020-05-16 09:11:13.306 1461.727 00:21:07
78 HENDRICKSON FAMILY LOFT AU19-CORP-4370 113.192 2020-05-16 09:16:40.706 1457.568 00:22:19
79 HENDRICKSON FAMILY LOFT AU19-CORP-4362 113.192 2020-05-16 09:16:46.089 1456.612 00:22:25
80 AMERICAN LOFT AU19-CORP-4622 113.112 2020-05-16 09:16:57.188 1453.610 00:22:41
81 RUETER FAMILY LOFT AU19-CORP-5261 143.014 2020-05-16 09:56:31.224 1425.926 00:32:02
82 TOPIGEONUSA AU19-CORP-4956 116.048 2020-05-16 09:26:08.676 1397.553 00:28:54
83 RUETER FAMILY LOFT AU19-CORP-5265 143.014 2020-05-16 10:02:49.747 1376.723 00:38:21
84 RUETER FAMILY LOFT AU18-CORP-2696 143.014 2020-05-16 10:03:33.399 1371.266 00:39:04
85 AMERICAN LOFT AU19-CORP-4711 113.112 2020-05-16 09:25:24.164 1369.138 00:31:08
86 ROCKY TOP AU19-JEDD-0504 108.983 2020-05-16 09:20:18.146 1367.121 00:30:12
87 TOPIGEONUSA AU16-CORP-6549 116.048 2020-05-16 09:33:31.730 1330.335 00:36:17
88 RUETER FAMILY LOFT AU19-CORP-5259 143.014 2020-05-16 10:10:28.915 1321.411 00:46:00
89 ROCKY TOP AU18-CORP-3335 108.983 2020-05-16 09:30:22.802 1275.504 00:40:17
90 RUETER FAMILY LOFT AU19-CORP-5258 143.014 2020-05-16 10:18:44.614 1266.481 00:54:16
91 RUETER FAMILY LOFT AU19-CORP-5250 143.014 2020-05-16 10:19:06.948 1264.114 00:54:38
92 STEELE LOFT AU14-CORP-1062 116.355 2020-05-16 09:56:32.767 1159.951 00:59:00
93 RUETER FAMILY LOFT AU19-CORP-5251 143.014 2020-05-16 10:46:21.000 1112.017 01:21:52
94 AMERICAN LOFT AU19-CORP-4650 113.112 2020-05-16 10:12:47.288 1032.618 01:18:31
95 AMERICAN LOFT AU19-CORP-4602 113.112 2020-05-16 11:14:03.457 783.588 02:19:47
96 AMERICAN LOFT AU19-CORP-4605 113.112 2020-05-16 11:38:21.158 715.195 02:44:05
97 RUETER FAMILY LOFT AU19-CORP-5291 143.014 2020-05-16 13:57:58.246 602.207 04:33:29
98 RUETER FAMILY LOFT AU17-CORP-0513 143.014 2020-05-16 15:30:01.366 493.517 06:05:32
99 TIM GRAVES AU19-CORP-4213 107.552 2020-05-18 12:41:09.662 84.945 35:19:45
100 TIM GRAVES AU14-CORP-1963 107.552 2020-05-20 11:41:43.486 41.553 74:06:46
100 TIM GRAVES AU19-CORP-4239 107.552 2020-05-20 11:41:42.677 41.553 74:06:46
101 TIM GRAVES AU13-TCW-3849 107.552 2020-05-20 11:41:45.662 41.552 74:06:53
101 TIM GRAVES AU17-CORP-2022 107.552 2020-05-20 11:41:46.387 41.552 74:06:53
101 TIM GRAVES AU19-CORP-4203 107.552 2020-05-20 11:41:49.543 41.552 74:06:53
102 TIM GRAVES AU17-CORP-0812 107.552 2020-05-20 11:41:59.155 41.550 74:07:06
102 TIM GRAVES AU17-CORP-0834 107.552 2020-05-20 11:41:59.502 41.550 74:07:06
103 TIM GRAVES AU17-FOYS-3050 107.552 2020-05-20 11:47:58.718 41.496 74:13:01
104 TIM GRAVES AU19-CORP-4223 107.552 2020-05-20 11:48:38.158 41.490 74:13:41
105 TIM GRAVES AU15-AA-14507 107.552 2020-05-20 11:48:45.123 41.489 74:13:48
105 TIM GRAVES AU16-CORP-6702 107.552 2020-05-20 11:48:45.415 41.489 74:13:48
105 TIM GRAVES AU19-CORP-4232 107.552 2020-05-20 11:48:45.850 41.489 74:13:48
106 TIM GRAVES AU14-CORP-0072 107.552 2020-05-20 11:48:49.849 41.488 74:13:54
106 TIM GRAVES AU15-AA-14510 107.552 2020-05-20 11:48:52.548 41.488 74:13:54
106 TIM GRAVES AU16-AUB-0602 107.552 2020-05-20 11:48:46.961 41.488 74:13:54
107 TIM GRAVES AU15-CORP-3070 107.552 2020-05-20 11:48:54.933 41.487 74:14:01
108 TIM GRAVES AU19-CORP-4211 107.552 2020-05-20 11:49:03.375 41.486 74:14:07
109 TIM GRAVES AU17-CORP-0879 107.552 2020-05-20 11:49:20.620 41.483 74:14:27
AMERICAN LOFT AU17-CORP-0151 0 0000-00-00 00:00:00.000 0.000 00:00:00
AMERICAN LOFT AU19-CORP-4673 0 0000-00-00 00:00:00.000 0.000 00:00:00
RUETER FAMILY LOFT AU18-CORP-2721 0 0000-00-00 00:00:00.000 0.000 00:00:00
RUETER FAMILY LOFT AU19-CORP-5279 0 0000-00-00 00:00:00.000 0.000 00:00:00
RUETER FAMILY LOFT AU19-CORP-5283 0 0000-00-00 00:00:00.000 0.000 00:00:00
RUETER FAMILY LOFT AU19-CORP-5353 0 0000-00-00 00:00:00.000 0.000 00:00:00
TIM GRAVES AU19-CORP-4209 0 0000-00-00 00:00:00.000 0.000 00:00:00
TOPIGEONUSA AU18-CORP-4269 0 0000-00-00 00:00:00.000 0.000 00:00:00
TOPIGEONUSA AU18-CORP-4277 0 0000-00-00 00:00:00.000 0.000 00:00:00